<?xml version="1.0" encoding="UTF-8" standalone="no" ?>
<gpx xmlns="http://www.topografix.com/GPX/1/1" xmlns:xsi="http://www.w3.org/2001/XMLSchema-instance" xsi:schemaLocation="http://www.topografix.com/GPX/1/1 http://www.topografix.com/GPX/1/1/gpx.xsd" version="1.1" creator="VisuGPX - https://www.visugpx.com">
  <metadata>
    <name>ALRandoNiveau1Arcens-Soutron-Massas-Le Cheylard</name>
  </metadata>
  <trk>
    <name><![CDATA[ALRandoNiveau1Arcens-Soutron-Massas-Le Cheylard]]></name>
    <trkseg>
      <trkpt lat="44.90045" lon="4.32402">
        <ele>623</ele>
        <time>2020-06-22T21:29:53+02:00</time>
      </trkpt>
      <trkpt lat="44.90043" lon="4.32344">
        <ele>628</ele>
        <time>2020-06-22T21:29:58+02:00</time>
      </trkpt>
      <trkpt lat="44.90039" lon="4.32329">
        <ele>629</ele>
        <time>2020-06-22T21:30:03+02:00</time>
      </trkpt>
      <trkpt lat="44.9003" lon="4.32298">
        <ele>633</ele>
        <time>2020-06-22T21:30:08+02:00</time>
      </trkpt>
      <trkpt lat="44.9003" lon="4.32286">
        <ele>635</ele>
        <time>2020-06-22T21:30:13+02:00</time>
      </trkpt>
      <trkpt lat="44.90042" lon="4.32185">
        <ele>658</ele>
        <time>2020-06-22T21:30:18+02:00</time>
      </trkpt>
      <trkpt lat="44.90049" lon="4.32176">
        <ele>660</ele>
        <time>2020-06-22T21:30:23+02:00</time>
      </trkpt>
      <trkpt lat="44.90056" lon="4.32161">
        <ele>664</ele>
        <time>2020-06-22T21:30:28+02:00</time>
      </trkpt>
      <trkpt lat="44.90065" lon="4.32164">
        <ele>664</ele>
        <time>2020-06-22T21:30:33+02:00</time>
      </trkpt>
      <trkpt lat="44.90071" lon="4.32156">
        <ele>665</ele>
        <time>2020-06-22T21:30:38+02:00</time>
      </trkpt>
      <trkpt lat="44.90069" lon="4.32127">
        <ele>668</ele>
        <time>2020-06-22T21:30:43+02:00</time>
      </trkpt>
      <trkpt lat="44.90057" lon="4.32117">
        <ele>670</ele>
        <time>2020-06-22T21:30:48+02:00</time>
      </trkpt>
      <trkpt lat="44.90055" lon="4.32009">
        <ele>696</ele>
        <time>2020-06-22T21:30:53+02:00</time>
      </trkpt>
      <trkpt lat="44.90012" lon="4.32048">
        <ele>692</ele>
        <time>2020-06-22T21:30:58+02:00</time>
      </trkpt>
      <trkpt lat="44.90011" lon="4.3198">
        <ele>708</ele>
        <time>2020-06-22T21:31:03+02:00</time>
      </trkpt>
      <trkpt lat="44.89998" lon="4.31925">
        <ele>719</ele>
        <time>2020-06-22T21:31:08+02:00</time>
      </trkpt>
      <trkpt lat="44.8999" lon="4.31893">
        <ele>720</ele>
        <time>2020-06-22T21:31:13+02:00</time>
      </trkpt>
      <trkpt lat="44.89988" lon="4.31825">
        <ele>719</ele>
        <time>2020-06-22T21:31:18+02:00</time>
      </trkpt>
      <trkpt lat="44.90023" lon="4.31752">
        <ele>709</ele>
        <time>2020-06-22T21:31:23+02:00</time>
      </trkpt>
      <trkpt lat="44.90049" lon="4.31724">
        <ele>714</ele>
        <time>2020-06-22T21:31:28+02:00</time>
      </trkpt>
      <trkpt lat="44.9005" lon="4.31705">
        <ele>715</ele>
        <time>2020-06-22T21:31:33+02:00</time>
      </trkpt>
      <trkpt lat="44.9003" lon="4.31692">
        <ele>715</ele>
        <time>2020-06-22T21:31:38+02:00</time>
      </trkpt>
      <trkpt lat="44.90018" lon="4.31685">
        <ele>715</ele>
        <time>2020-06-22T21:31:43+02:00</time>
      </trkpt>
      <trkpt lat="44.89995" lon="4.31678">
        <ele>715</ele>
        <time>2020-06-22T21:31:48+02:00</time>
      </trkpt>
      <trkpt lat="44.90014" lon="4.31623">
        <ele>727</ele>
        <time>2020-06-22T21:31:53+02:00</time>
      </trkpt>
      <trkpt lat="44.90033" lon="4.31601">
        <ele>731</ele>
        <time>2020-06-22T21:31:58+02:00</time>
      </trkpt>
      <trkpt lat="44.90041" lon="4.3158">
        <ele>735</ele>
        <time>2020-06-22T21:32:03+02:00</time>
      </trkpt>
      <trkpt lat="44.90048" lon="4.31536">
        <ele>744</ele>
        <time>2020-06-22T21:32:08+02:00</time>
      </trkpt>
      <trkpt lat="44.90069" lon="4.31502">
        <ele>748</ele>
        <time>2020-06-22T21:32:13+02:00</time>
      </trkpt>
      <trkpt lat="44.90071" lon="4.31493">
        <ele>750</ele>
        <time>2020-06-22T21:32:18+02:00</time>
      </trkpt>
      <trkpt lat="44.90064" lon="4.31479">
        <ele>755</ele>
        <time>2020-06-22T21:32:23+02:00</time>
      </trkpt>
      <trkpt lat="44.90088" lon="4.31439">
        <ele>761</ele>
        <time>2020-06-22T21:32:28+02:00</time>
      </trkpt>
      <trkpt lat="44.90104" lon="4.31413">
        <ele>764</ele>
        <time>2020-06-22T21:32:33+02:00</time>
      </trkpt>
      <trkpt lat="44.9011" lon="4.31387">
        <ele>769</ele>
        <time>2020-06-22T21:32:38+02:00</time>
      </trkpt>
      <trkpt lat="44.901" lon="4.31374">
        <ele>773</ele>
        <time>2020-06-22T21:32:43+02:00</time>
      </trkpt>
      <trkpt lat="44.90101" lon="4.3129">
        <ele>791</ele>
        <time>2020-06-22T21:32:48+02:00</time>
      </trkpt>
      <trkpt lat="44.90095" lon="4.3129">
        <ele>791</ele>
        <time>2020-06-22T21:32:53+02:00</time>
      </trkpt>
      <trkpt lat="44.90099" lon="4.31256">
        <ele>798</ele>
        <time>2020-06-22T21:32:58+02:00</time>
      </trkpt>
      <trkpt lat="44.90094" lon="4.31212">
        <ele>809</ele>
        <time>2020-06-22T21:33:03+02:00</time>
      </trkpt>
      <trkpt lat="44.90105" lon="4.31124">
        <ele>826</ele>
        <time>2020-06-22T21:33:08+02:00</time>
      </trkpt>
      <trkpt lat="44.90096" lon="4.31108">
        <ele>830</ele>
        <time>2020-06-22T21:33:13+02:00</time>
      </trkpt>
      <trkpt lat="44.90111" lon="4.31055">
        <ele>832</ele>
        <time>2020-06-22T21:33:18+02:00</time>
      </trkpt>
      <trkpt lat="44.90152" lon="4.31001">
        <ele>833</ele>
        <time>2020-06-22T21:33:23+02:00</time>
      </trkpt>
      <trkpt lat="44.90248" lon="4.30896">
        <ele>852</ele>
        <time>2020-06-22T21:33:28+02:00</time>
      </trkpt>
      <trkpt lat="44.90321" lon="4.30757">
        <ele>866</ele>
        <time>2020-06-22T21:33:33+02:00</time>
      </trkpt>
      <trkpt lat="44.90426" lon="4.30643">
        <ele>888</ele>
        <time>2020-06-22T21:33:38+02:00</time>
      </trkpt>
      <trkpt lat="44.90376" lon="4.30559">
        <ele>876</ele>
        <time>2020-06-22T21:33:43+02:00</time>
      </trkpt>
      <trkpt lat="44.90408" lon="4.30471">
        <ele>893</ele>
        <time>2020-06-22T21:33:48+02:00</time>
      </trkpt>
      <trkpt lat="44.90496" lon="4.30458">
        <ele>920</ele>
        <time>2020-06-22T21:33:53+02:00</time>
      </trkpt>
      <trkpt lat="44.90494" lon="4.30394">
        <ele>922</ele>
        <time>2020-06-22T21:33:58+02:00</time>
      </trkpt>
      <trkpt lat="44.90584" lon="4.30229">
        <ele>937</ele>
        <time>2020-06-22T21:34:03+02:00</time>
      </trkpt>
      <trkpt lat="44.90596" lon="4.30182">
        <ele>936</ele>
        <time>2020-06-22T21:34:08+02:00</time>
      </trkpt>
      <trkpt lat="44.90658" lon="4.30145">
        <ele>947</ele>
        <time>2020-06-22T21:34:13+02:00</time>
      </trkpt>
      <trkpt lat="44.90693" lon="4.29982">
        <ele>958</ele>
        <time>2020-06-22T21:34:18+02:00</time>
      </trkpt>
      <trkpt lat="44.90678" lon="4.29836">
        <ele>967</ele>
        <time>2020-06-22T21:34:23+02:00</time>
      </trkpt>
      <trkpt lat="44.90625" lon="4.29832">
        <ele>959</ele>
        <time>2020-06-22T21:34:28+02:00</time>
      </trkpt>
      <trkpt lat="44.9059" lon="4.29793">
        <ele>959</ele>
        <time>2020-06-22T21:34:33+02:00</time>
      </trkpt>
      <trkpt lat="44.90547" lon="4.29757">
        <ele>963</ele>
        <time>2020-06-22T21:34:38+02:00</time>
      </trkpt>
      <trkpt lat="44.90471" lon="4.29759">
        <ele>965</ele>
        <time>2020-06-22T21:34:43+02:00</time>
      </trkpt>
      <trkpt lat="44.90442" lon="4.29731">
        <ele>971</ele>
        <time>2020-06-22T21:34:48+02:00</time>
      </trkpt>
      <trkpt lat="44.90419" lon="4.297">
        <ele>977</ele>
        <time>2020-06-22T21:34:53+02:00</time>
      </trkpt>
      <trkpt lat="44.90403" lon="4.29705">
        <ele>979</ele>
        <time>2020-06-22T21:34:58+02:00</time>
      </trkpt>
      <trkpt lat="44.90394" lon="4.29649">
        <ele>992</ele>
        <time>2020-06-22T21:35:03+02:00</time>
      </trkpt>
      <trkpt lat="44.90402" lon="4.29616">
        <ele>996</ele>
        <time>2020-06-22T21:35:08+02:00</time>
      </trkpt>
      <trkpt lat="44.90414" lon="4.29586">
        <ele>997</ele>
        <time>2020-06-22T21:35:13+02:00</time>
      </trkpt>
      <trkpt lat="44.904" lon="4.29551">
        <ele>1007</ele>
        <time>2020-06-22T21:35:18+02:00</time>
      </trkpt>
      <trkpt lat="44.90401" lon="4.2949">
        <ele>1015</ele>
        <time>2020-06-22T21:35:23+02:00</time>
      </trkpt>
      <trkpt lat="44.90405" lon="4.29463">
        <ele>1019</ele>
        <time>2020-06-22T21:35:28+02:00</time>
      </trkpt>
      <trkpt lat="44.904" lon="4.29428">
        <ele>1028</ele>
        <time>2020-06-22T21:35:33+02:00</time>
      </trkpt>
      <trkpt lat="44.90402" lon="4.29397">
        <ele>1033</ele>
        <time>2020-06-22T21:35:38+02:00</time>
      </trkpt>
      <trkpt lat="44.90417" lon="4.29372">
        <ele>1031</ele>
        <time>2020-06-22T21:35:43+02:00</time>
      </trkpt>
      <trkpt lat="44.90417" lon="4.29334">
        <ele>1038</ele>
        <time>2020-06-22T21:35:48+02:00</time>
      </trkpt>
      <trkpt lat="44.90408" lon="4.29315">
        <ele>1043</ele>
        <time>2020-06-22T21:35:53+02:00</time>
      </trkpt>
      <trkpt lat="44.90417" lon="4.29275">
        <ele>1045</ele>
        <time>2020-06-22T21:35:58+02:00</time>
      </trkpt>
      <trkpt lat="44.9042" lon="4.29255">
        <ele>1048</ele>
        <time>2020-06-22T21:36:03+02:00</time>
      </trkpt>
      <trkpt lat="44.90417" lon="4.29242">
        <ele>1047</ele>
        <time>2020-06-22T21:36:08+02:00</time>
      </trkpt>
      <trkpt lat="44.90359" lon="4.29265">
        <ele>1058</ele>
        <time>2020-06-22T21:36:13+02:00</time>
      </trkpt>
      <trkpt lat="44.90334" lon="4.29295">
        <ele>1067</ele>
        <time>2020-06-22T21:36:18+02:00</time>
      </trkpt>
      <trkpt lat="44.90312" lon="4.29308">
        <ele>1073</ele>
        <time>2020-06-22T21:36:23+02:00</time>
      </trkpt>
      <trkpt lat="44.90293" lon="4.29315">
        <ele>1079</ele>
        <time>2020-06-22T21:36:28+02:00</time>
      </trkpt>
      <trkpt lat="44.90273" lon="4.29329">
        <ele>1087</ele>
        <time>2020-06-22T21:36:33+02:00</time>
      </trkpt>
      <trkpt lat="44.90262" lon="4.29332">
        <ele>1090</ele>
        <time>2020-06-22T21:36:38+02:00</time>
      </trkpt>
      <trkpt lat="44.90252" lon="4.29334">
        <ele>1093</ele>
        <time>2020-06-22T21:36:43+02:00</time>
      </trkpt>
      <trkpt lat="44.90249" lon="4.29323">
        <ele>1091</ele>
        <time>2020-06-22T21:36:48+02:00</time>
      </trkpt>
      <trkpt lat="44.90229" lon="4.29326">
        <ele>1090</ele>
        <time>2020-06-22T21:36:53+02:00</time>
      </trkpt>
      <trkpt lat="44.90223" lon="4.29329">
        <ele>1091</ele>
        <time>2020-06-22T21:36:58+02:00</time>
      </trkpt>
      <trkpt lat="44.90216" lon="4.29333">
        <ele>1092</ele>
        <time>2020-06-22T21:37:03+02:00</time>
      </trkpt>
      <trkpt lat="44.90211" lon="4.29338">
        <ele>1091</ele>
        <time>2020-06-22T21:37:08+02:00</time>
      </trkpt>
      <trkpt lat="44.90202" lon="4.29364">
        <ele>1093</ele>
        <time>2020-06-22T21:37:13+02:00</time>
      </trkpt>
      <trkpt lat="44.90182" lon="4.2939">
        <ele>1096</ele>
        <time>2020-06-22T21:37:18+02:00</time>
      </trkpt>
      <trkpt lat="44.90176" lon="4.29395">
        <ele>1097</ele>
        <time>2020-06-22T21:37:23+02:00</time>
      </trkpt>
      <trkpt lat="44.90172" lon="4.29402">
        <ele>1098</ele>
        <time>2020-06-22T21:37:28+02:00</time>
      </trkpt>
      <trkpt lat="44.90197" lon="4.29371">
        <ele>1093</ele>
        <time>2020-06-22T21:37:33+02:00</time>
      </trkpt>
      <trkpt lat="44.90211" lon="4.29332">
        <ele>1091</ele>
        <time>2020-06-22T21:37:38+02:00</time>
      </trkpt>
      <trkpt lat="44.90249" lon="4.29319">
        <ele>1090</ele>
        <time>2020-06-22T21:37:43+02:00</time>
      </trkpt>
      <trkpt lat="44.90255" lon="4.29336">
        <ele>1092</ele>
        <time>2020-06-22T21:37:48+02:00</time>
      </trkpt>
      <trkpt lat="44.90295" lon="4.29316">
        <ele>1078</ele>
        <time>2020-06-22T21:37:53+02:00</time>
      </trkpt>
      <trkpt lat="44.90347" lon="4.29284">
        <ele>1062</ele>
        <time>2020-06-22T21:37:58+02:00</time>
      </trkpt>
      <trkpt lat="44.90383" lon="4.29254">
        <ele>1054</ele>
        <time>2020-06-22T21:38:03+02:00</time>
      </trkpt>
      <trkpt lat="44.9042" lon="4.29239">
        <ele>1047</ele>
        <time>2020-06-22T21:38:08+02:00</time>
      </trkpt>
      <trkpt lat="44.90409" lon="4.29303">
        <ele>1044</ele>
        <time>2020-06-22T21:38:13+02:00</time>
      </trkpt>
      <trkpt lat="44.90418" lon="4.29378">
        <ele>1029</ele>
        <time>2020-06-22T21:38:18+02:00</time>
      </trkpt>
      <trkpt lat="44.90403" lon="4.29387">
        <ele>1034</ele>
        <time>2020-06-22T21:38:23+02:00</time>
      </trkpt>
      <trkpt lat="44.90402" lon="4.29426">
        <ele>1028</ele>
        <time>2020-06-22T21:38:28+02:00</time>
      </trkpt>
      <trkpt lat="44.90405" lon="4.29462">
        <ele>1019</ele>
        <time>2020-06-22T21:38:33+02:00</time>
      </trkpt>
      <trkpt lat="44.90402" lon="4.2951">
        <ele>1012</ele>
        <time>2020-06-22T21:38:38+02:00</time>
      </trkpt>
      <trkpt lat="44.904" lon="4.29553">
        <ele>1007</ele>
        <time>2020-06-22T21:38:43+02:00</time>
      </trkpt>
      <trkpt lat="44.90416" lon="4.2959">
        <ele>996</ele>
        <time>2020-06-22T21:38:48+02:00</time>
      </trkpt>
      <trkpt lat="44.90406" lon="4.2961">
        <ele>996</ele>
        <time>2020-06-22T21:38:53+02:00</time>
      </trkpt>
      <trkpt lat="44.90396" lon="4.29635">
        <ele>994</ele>
        <time>2020-06-22T21:38:58+02:00</time>
      </trkpt>
      <trkpt lat="44.90394" lon="4.29655">
        <ele>991</ele>
        <time>2020-06-22T21:39:03+02:00</time>
      </trkpt>
      <trkpt lat="44.90403" lon="4.29707">
        <ele>979</ele>
        <time>2020-06-22T21:39:08+02:00</time>
      </trkpt>
      <trkpt lat="44.90418" lon="4.29696">
        <ele>978</ele>
        <time>2020-06-22T21:39:13+02:00</time>
      </trkpt>
      <trkpt lat="44.90445" lon="4.29736">
        <ele>970</ele>
        <time>2020-06-22T21:39:18+02:00</time>
      </trkpt>
      <trkpt lat="44.90466" lon="4.29752">
        <ele>966</ele>
        <time>2020-06-22T21:39:23+02:00</time>
      </trkpt>
      <trkpt lat="44.90493" lon="4.29744">
        <ele>966</ele>
        <time>2020-06-22T21:39:28+02:00</time>
      </trkpt>
      <trkpt lat="44.90517" lon="4.29746">
        <ele>965</ele>
        <time>2020-06-22T21:39:33+02:00</time>
      </trkpt>
      <trkpt lat="44.90533" lon="4.29761">
        <ele>963</ele>
        <time>2020-06-22T21:39:38+02:00</time>
      </trkpt>
      <trkpt lat="44.90492" lon="4.29789">
        <ele>958</ele>
        <time>2020-06-22T21:39:43+02:00</time>
      </trkpt>
      <trkpt lat="44.90462" lon="4.29796">
        <ele>957</ele>
        <time>2020-06-22T21:39:48+02:00</time>
      </trkpt>
      <trkpt lat="44.90431" lon="4.2981">
        <ele>955</ele>
        <time>2020-06-22T21:39:53+02:00</time>
      </trkpt>
      <trkpt lat="44.90252" lon="4.29866">
        <ele>953</ele>
        <time>2020-06-22T21:39:58+02:00</time>
      </trkpt>
      <trkpt lat="44.90132" lon="4.29922">
        <ele>939</ele>
        <time>2020-06-22T21:40:03+02:00</time>
      </trkpt>
      <trkpt lat="44.90018" lon="4.29929">
        <ele>922</ele>
        <time>2020-06-22T21:40:08+02:00</time>
      </trkpt>
      <trkpt lat="44.90082" lon="4.29965">
        <ele>920</ele>
        <time>2020-06-22T21:40:13+02:00</time>
      </trkpt>
      <trkpt lat="44.9012" lon="4.3001">
        <ele>910</ele>
        <time>2020-06-22T21:40:18+02:00</time>
      </trkpt>
      <trkpt lat="44.90223" lon="4.30055">
        <ele>901</ele>
        <time>2020-06-22T21:40:23+02:00</time>
      </trkpt>
      <trkpt lat="44.90348" lon="4.30036">
        <ele>897</ele>
        <time>2020-06-22T21:40:28+02:00</time>
      </trkpt>
      <trkpt lat="44.90436" lon="4.30075">
        <ele>886</ele>
        <time>2020-06-22T21:40:33+02:00</time>
      </trkpt>
      <trkpt lat="44.9034" lon="4.30143">
        <ele>871</ele>
        <time>2020-06-22T21:40:38+02:00</time>
      </trkpt>
      <trkpt lat="44.90232" lon="4.30253">
        <ele>848</ele>
        <time>2020-06-22T21:40:43+02:00</time>
      </trkpt>
      <trkpt lat="44.90124" lon="4.30293">
        <ele>835</ele>
        <time>2020-06-22T21:40:48+02:00</time>
      </trkpt>
      <trkpt lat="44.90161" lon="4.30373">
        <ele>823</ele>
        <time>2020-06-22T21:40:53+02:00</time>
      </trkpt>
      <trkpt lat="44.90229" lon="4.30414">
        <ele>817</ele>
        <time>2020-06-22T21:40:58+02:00</time>
      </trkpt>
      <trkpt lat="44.90177" lon="4.30461">
        <ele>808</ele>
        <time>2020-06-22T21:41:03+02:00</time>
      </trkpt>
      <trkpt lat="44.90101" lon="4.30452">
        <ele>798</ele>
        <time>2020-06-22T21:41:08+02:00</time>
      </trkpt>
      <trkpt lat="44.89998" lon="4.30401">
        <ele>781</ele>
        <time>2020-06-22T21:41:13+02:00</time>
      </trkpt>
      <trkpt lat="44.89934" lon="4.30306">
        <ele>789</ele>
        <time>2020-06-22T21:41:18+02:00</time>
      </trkpt>
      <trkpt lat="44.89895" lon="4.30341">
        <ele>779</ele>
        <time>2020-06-22T21:41:23+02:00</time>
      </trkpt>
      <trkpt lat="44.89873" lon="4.30332">
        <ele>783</ele>
        <time>2020-06-22T21:41:28+02:00</time>
      </trkpt>
      <trkpt lat="44.89831" lon="4.30439">
        <ele>766</ele>
        <time>2020-06-22T21:41:33+02:00</time>
      </trkpt>
      <trkpt lat="44.89773" lon="4.30489">
        <ele>768</ele>
        <time>2020-06-22T21:41:38+02:00</time>
      </trkpt>
      <trkpt lat="44.89756" lon="4.30551">
        <ele>752</ele>
        <time>2020-06-22T21:41:43+02:00</time>
      </trkpt>
      <trkpt lat="44.89708" lon="4.30622">
        <ele>734</ele>
        <time>2020-06-22T21:41:48+02:00</time>
      </trkpt>
      <trkpt lat="44.89648" lon="4.3062">
        <ele>737</ele>
        <time>2020-06-22T21:41:53+02:00</time>
      </trkpt>
      <trkpt lat="44.89604" lon="4.30641">
        <ele>732</ele>
        <time>2020-06-22T21:41:58+02:00</time>
      </trkpt>
      <trkpt lat="44.89551" lon="4.30648">
        <ele>731</ele>
        <time>2020-06-22T21:42:03+02:00</time>
      </trkpt>
      <trkpt lat="44.89474" lon="4.30682">
        <ele>715</ele>
        <time>2020-06-22T21:42:08+02:00</time>
      </trkpt>
      <trkpt lat="44.89387" lon="4.30727">
        <ele>696</ele>
        <time>2020-06-22T21:42:13+02:00</time>
      </trkpt>
      <trkpt lat="44.89338" lon="4.30737">
        <ele>691</ele>
        <time>2020-06-22T21:42:18+02:00</time>
      </trkpt>
      <trkpt lat="44.89385" lon="4.30644">
        <ele>704</ele>
        <time>2020-06-22T21:42:23+02:00</time>
      </trkpt>
      <trkpt lat="44.89378" lon="4.30535">
        <ele>701</ele>
        <time>2020-06-22T21:42:28+02:00</time>
      </trkpt>
      <trkpt lat="44.89404" lon="4.30373">
        <ele>702</ele>
        <time>2020-06-22T21:42:33+02:00</time>
      </trkpt>
      <trkpt lat="44.89369" lon="4.30348">
        <ele>700</ele>
        <time>2020-06-22T21:42:38+02:00</time>
      </trkpt>
      <trkpt lat="44.89353" lon="4.30421">
        <ele>688</ele>
        <time>2020-06-22T21:42:43+02:00</time>
      </trkpt>
      <trkpt lat="44.89327" lon="4.30471">
        <ele>683</ele>
        <time>2020-06-22T21:42:48+02:00</time>
      </trkpt>
      <trkpt lat="44.89272" lon="4.30531">
        <ele>690</ele>
        <time>2020-06-22T21:42:53+02:00</time>
      </trkpt>
      <trkpt lat="44.89229" lon="4.30666">
        <ele>669</ele>
        <time>2020-06-22T21:42:58+02:00</time>
      </trkpt>
      <trkpt lat="44.89183" lon="4.30696">
        <ele>665</ele>
        <time>2020-06-22T21:43:03+02:00</time>
      </trkpt>
      <trkpt lat="44.89148" lon="4.30651">
        <ele>668</ele>
        <time>2020-06-22T21:43:08+02:00</time>
      </trkpt>
      <trkpt lat="44.89138" lon="4.30668">
        <ele>665</ele>
        <time>2020-06-22T21:43:13+02:00</time>
      </trkpt>
      <trkpt lat="44.89077" lon="4.30678">
        <ele>665</ele>
        <time>2020-06-22T21:43:18+02:00</time>
      </trkpt>
      <trkpt lat="44.89049" lon="4.30666">
        <ele>675</ele>
        <time>2020-06-22T21:43:23+02:00</time>
      </trkpt>
      <trkpt lat="44.89046" lon="4.30684">
        <ele>678</ele>
        <time>2020-06-22T21:43:28+02:00</time>
      </trkpt>
      <trkpt lat="44.89062" lon="4.30719">
        <ele>675</ele>
        <time>2020-06-22T21:43:33+02:00</time>
      </trkpt>
      <trkpt lat="44.89063" lon="4.30774">
        <ele>675</ele>
        <time>2020-06-22T21:43:38+02:00</time>
      </trkpt>
      <trkpt lat="44.89005" lon="4.30878">
        <ele>700</ele>
        <time>2020-06-22T21:43:43+02:00</time>
      </trkpt>
      <trkpt lat="44.88995" lon="4.30902">
        <ele>704</ele>
        <time>2020-06-22T21:43:48+02:00</time>
      </trkpt>
      <trkpt lat="44.89053" lon="4.3091">
        <ele>680</ele>
        <time>2020-06-22T21:43:53+02:00</time>
      </trkpt>
      <trkpt lat="44.89071" lon="4.30983">
        <ele>692</ele>
        <time>2020-06-22T21:43:58+02:00</time>
      </trkpt>
      <trkpt lat="44.89069" lon="4.31062">
        <ele>713</ele>
        <time>2020-06-22T21:44:03+02:00</time>
      </trkpt>
      <trkpt lat="44.89179" lon="4.31175">
        <ele>695</ele>
        <time>2020-06-22T21:44:08+02:00</time>
      </trkpt>
      <trkpt lat="44.89176" lon="4.31226">
        <ele>709</ele>
        <time>2020-06-22T21:44:13+02:00</time>
      </trkpt>
      <trkpt lat="44.89243" lon="4.31327">
        <ele>705</ele>
        <time>2020-06-22T21:44:18+02:00</time>
      </trkpt>
      <trkpt lat="44.89262" lon="4.31386">
        <ele>707</ele>
        <time>2020-06-22T21:44:23+02:00</time>
      </trkpt>
      <trkpt lat="44.89302" lon="4.3142">
        <ele>699</ele>
        <time>2020-06-22T21:44:28+02:00</time>
      </trkpt>
      <trkpt lat="44.8931" lon="4.3148">
        <ele>701</ele>
        <time>2020-06-22T21:44:33+02:00</time>
      </trkpt>
      <trkpt lat="44.89294" lon="4.3154">
        <ele>708</ele>
        <time>2020-06-22T21:44:38+02:00</time>
      </trkpt>
      <trkpt lat="44.89268" lon="4.31564">
        <ele>717</ele>
        <time>2020-06-22T21:44:43+02:00</time>
      </trkpt>
      <trkpt lat="44.89286" lon="4.3161">
        <ele>710</ele>
        <time>2020-06-22T21:44:48+02:00</time>
      </trkpt>
      <trkpt lat="44.89275" lon="4.3168">
        <ele>710</ele>
        <time>2020-06-22T21:44:53+02:00</time>
      </trkpt>
      <trkpt lat="44.89224" lon="4.31737">
        <ele>714</ele>
        <time>2020-06-22T21:44:58+02:00</time>
      </trkpt>
      <trkpt lat="44.89134" lon="4.31792">
        <ele>726</ele>
        <time>2020-06-22T21:45:03+02:00</time>
      </trkpt>
      <trkpt lat="44.89014" lon="4.3179">
        <ele>746</ele>
        <time>2020-06-22T21:45:08+02:00</time>
      </trkpt>
      <trkpt lat="44.88972" lon="4.31826">
        <ele>746</ele>
        <time>2020-06-22T21:45:13+02:00</time>
      </trkpt>
      <trkpt lat="44.89173" lon="4.31956">
        <ele>742</ele>
        <time>2020-06-22T21:45:18+02:00</time>
      </trkpt>
      <trkpt lat="44.89176" lon="4.32019">
        <ele>748</ele>
        <time>2020-06-22T21:45:23+02:00</time>
      </trkpt>
      <trkpt lat="44.89072" lon="4.32101">
        <ele>776</ele>
        <time>2020-06-22T21:45:28+02:00</time>
      </trkpt>
      <trkpt lat="44.89014" lon="4.32253">
        <ele>795</ele>
        <time>2020-06-22T21:45:33+02:00</time>
      </trkpt>
      <trkpt lat="44.89138" lon="4.32193">
        <ele>775</ele>
        <time>2020-06-22T21:45:38+02:00</time>
      </trkpt>
      <trkpt lat="44.89252" lon="4.32232">
        <ele>780</ele>
        <time>2020-06-22T21:45:43+02:00</time>
      </trkpt>
      <trkpt lat="44.89182" lon="4.32294">
        <ele>805</ele>
        <time>2020-06-22T21:45:48+02:00</time>
      </trkpt>
      <trkpt lat="44.89136" lon="4.32279">
        <ele>802</ele>
        <time>2020-06-22T21:45:53+02:00</time>
      </trkpt>
      <trkpt lat="44.89077" lon="4.32359">
        <ele>821</ele>
        <time>2020-06-22T21:45:58+02:00</time>
      </trkpt>
      <trkpt lat="44.89031" lon="4.32436">
        <ele>839</ele>
        <time>2020-06-22T21:46:03+02:00</time>
      </trkpt>
      <trkpt lat="44.89052" lon="4.32522">
        <ele>865</ele>
        <time>2020-06-22T21:46:08+02:00</time>
      </trkpt>
      <trkpt lat="44.89016" lon="4.32633">
        <ele>882</ele>
        <time>2020-06-22T21:46:13+02:00</time>
      </trkpt>
      <trkpt lat="44.8894" lon="4.32654">
        <ele>897</ele>
        <time>2020-06-22T21:46:18+02:00</time>
      </trkpt>
      <trkpt lat="44.88873" lon="4.32646">
        <ele>907</ele>
        <time>2020-06-22T21:46:23+02:00</time>
      </trkpt>
      <trkpt lat="44.88758" lon="4.32539">
        <ele>914</ele>
        <time>2020-06-22T21:46:28+02:00</time>
      </trkpt>
      <trkpt lat="44.88713" lon="4.3247">
        <ele>907</ele>
        <time>2020-06-22T21:46:33+02:00</time>
      </trkpt>
      <trkpt lat="44.8862" lon="4.32494">
        <ele>924</ele>
        <time>2020-06-22T21:46:38+02:00</time>
      </trkpt>
      <trkpt lat="44.88578" lon="4.32431">
        <ele>926</ele>
        <time>2020-06-22T21:46:43+02:00</time>
      </trkpt>
      <trkpt lat="44.88569" lon="4.32459">
        <ele>923</ele>
        <time>2020-06-22T21:46:48+02:00</time>
      </trkpt>
      <trkpt lat="44.88777" lon="4.32756">
        <ele>956</ele>
        <time>2020-06-22T21:46:53+02:00</time>
      </trkpt>
      <trkpt lat="44.88824" lon="4.32884">
        <ele>956</ele>
        <time>2020-06-22T21:46:58+02:00</time>
      </trkpt>
      <trkpt lat="44.88855" lon="4.33202">
        <ele>957</ele>
        <time>2020-06-22T21:47:03+02:00</time>
      </trkpt>
      <trkpt lat="44.89013" lon="4.33511">
        <ele>959</ele>
        <time>2020-06-22T21:47:08+02:00</time>
      </trkpt>
      <trkpt lat="44.89107" lon="4.33832">
        <ele>970</ele>
        <time>2020-06-22T21:47:13+02:00</time>
      </trkpt>
      <trkpt lat="44.89448" lon="4.34219">
        <ele>981</ele>
        <time>2020-06-22T21:47:18+02:00</time>
      </trkpt>
      <trkpt lat="44.89493" lon="4.34699">
        <ele>949</ele>
        <time>2020-06-22T21:47:23+02:00</time>
      </trkpt>
      <trkpt lat="44.89657" lon="4.34781">
        <ele>941</ele>
        <time>2020-06-22T21:47:28+02:00</time>
      </trkpt>
      <trkpt lat="44.89727" lon="4.34905">
        <ele>928</ele>
        <time>2020-06-22T21:47:33+02:00</time>
      </trkpt>
      <trkpt lat="44.89922" lon="4.34854">
        <ele>933</ele>
        <time>2020-06-22T21:47:38+02:00</time>
      </trkpt>
      <trkpt lat="44.90123" lon="4.35214">
        <ele>937</ele>
        <time>2020-06-22T21:47:43+02:00</time>
      </trkpt>
      <trkpt lat="44.90296" lon="4.3515">
        <ele>957</ele>
        <time>2020-06-22T21:47:48+02:00</time>
      </trkpt>
      <trkpt lat="44.90524" lon="4.35333">
        <ele>946</ele>
        <time>2020-06-22T21:47:53+02:00</time>
      </trkpt>
      <trkpt lat="44.90584" lon="4.35464">
        <ele>945</ele>
        <time>2020-06-22T21:47:58+02:00</time>
      </trkpt>
      <trkpt lat="44.90587" lon="4.35567">
        <ele>948</ele>
        <time>2020-06-22T21:48:03+02:00</time>
      </trkpt>
      <trkpt lat="44.90561" lon="4.35635">
        <ele>942</ele>
        <time>2020-06-22T21:48:08+02:00</time>
      </trkpt>
      <trkpt lat="44.90601" lon="4.357">
        <ele>953</ele>
        <time>2020-06-22T21:48:13+02:00</time>
      </trkpt>
      <trkpt lat="44.90649" lon="4.35955">
        <ele>948</ele>
        <time>2020-06-22T21:48:18+02:00</time>
      </trkpt>
      <trkpt lat="44.90774" lon="4.36243">
        <ele>942</ele>
        <time>2020-06-22T21:48:23+02:00</time>
      </trkpt>
      <trkpt lat="44.90949" lon="4.365">
        <ele>936</ele>
        <time>2020-06-22T21:48:28+02:00</time>
      </trkpt>
      <trkpt lat="44.91059" lon="4.36733">
        <ele>942</ele>
        <time>2020-06-22T21:48:33+02:00</time>
      </trkpt>
      <trkpt lat="44.91083" lon="4.36939">
        <ele>945</ele>
        <time>2020-06-22T21:48:38+02:00</time>
      </trkpt>
      <trkpt lat="44.91153" lon="4.37081">
        <ele>945</ele>
        <time>2020-06-22T21:48:43+02:00</time>
      </trkpt>
      <trkpt lat="44.91219" lon="4.37137">
        <ele>938</ele>
        <time>2020-06-22T21:48:48+02:00</time>
      </trkpt>
      <trkpt lat="44.91239" lon="4.372">
        <ele>942</ele>
        <time>2020-06-22T21:48:53+02:00</time>
      </trkpt>
      <trkpt lat="44.913" lon="4.37264">
        <ele>937</ele>
        <time>2020-06-22T21:48:58+02:00</time>
      </trkpt>
      <trkpt lat="44.91306" lon="4.3735">
        <ele>937</ele>
        <time>2020-06-22T21:49:03+02:00</time>
      </trkpt>
      <trkpt lat="44.91351" lon="4.37431">
        <ele>927</ele>
        <time>2020-06-22T21:49:08+02:00</time>
      </trkpt>
      <trkpt lat="44.91375" lon="4.37536">
        <ele>921</ele>
        <time>2020-06-22T21:49:13+02:00</time>
      </trkpt>
      <trkpt lat="44.91332" lon="4.37626">
        <ele>921</ele>
        <time>2020-06-22T21:49:18+02:00</time>
      </trkpt>
      <trkpt lat="44.91436" lon="4.37643">
        <ele>914</ele>
        <time>2020-06-22T21:49:23+02:00</time>
      </trkpt>
      <trkpt lat="44.91451" lon="4.37742">
        <ele>907</ele>
        <time>2020-06-22T21:49:28+02:00</time>
      </trkpt>
      <trkpt lat="44.91424" lon="4.37783">
        <ele>902</ele>
        <time>2020-06-22T21:49:33+02:00</time>
      </trkpt>
      <trkpt lat="44.91371" lon="4.37805">
        <ele>902</ele>
        <time>2020-06-22T21:49:38+02:00</time>
      </trkpt>
      <trkpt lat="44.91284" lon="4.37952">
        <ele>888</ele>
        <time>2020-06-22T21:49:43+02:00</time>
      </trkpt>
      <trkpt lat="44.91248" lon="4.38195">
        <ele>892</ele>
        <time>2020-06-22T21:49:48+02:00</time>
      </trkpt>
      <trkpt lat="44.91177" lon="4.38406">
        <ele>884</ele>
        <time>2020-06-22T21:49:53+02:00</time>
      </trkpt>
      <trkpt lat="44.9118" lon="4.38554">
        <ele>878</ele>
        <time>2020-06-22T21:49:58+02:00</time>
      </trkpt>
      <trkpt lat="44.91143" lon="4.38667">
        <ele>872</ele>
        <time>2020-06-22T21:50:03+02:00</time>
      </trkpt>
      <trkpt lat="44.91146" lon="4.38708">
        <ele>871</ele>
        <time>2020-06-22T21:50:08+02:00</time>
      </trkpt>
      <trkpt lat="44.91218" lon="4.3868">
        <ele>865</ele>
        <time>2020-06-22T21:50:13+02:00</time>
      </trkpt>
      <trkpt lat="44.91287" lon="4.38599">
        <ele>867</ele>
        <time>2020-06-22T21:50:18+02:00</time>
      </trkpt>
      <trkpt lat="44.91332" lon="4.38614">
        <ele>857</ele>
        <time>2020-06-22T21:50:23+02:00</time>
      </trkpt>
      <trkpt lat="44.91371" lon="4.38652">
        <ele>848</ele>
        <time>2020-06-22T21:50:28+02:00</time>
      </trkpt>
      <trkpt lat="44.91462" lon="4.3871">
        <ele>839</ele>
        <time>2020-06-22T21:50:33+02:00</time>
      </trkpt>
      <trkpt lat="44.91509" lon="4.38792">
        <ele>827</ele>
        <time>2020-06-22T21:50:38+02:00</time>
      </trkpt>
      <trkpt lat="44.91439" lon="4.38863">
        <ele>806</ele>
        <time>2020-06-22T21:50:43+02:00</time>
      </trkpt>
      <trkpt lat="44.91411" lon="4.38906">
        <ele>794</ele>
        <time>2020-06-22T21:50:48+02:00</time>
      </trkpt>
      <trkpt lat="44.9138" lon="4.38863">
        <ele>801</ele>
        <time>2020-06-22T21:50:53+02:00</time>
      </trkpt>
      <trkpt lat="44.91357" lon="4.38901">
        <ele>793</ele>
        <time>2020-06-22T21:50:58+02:00</time>
      </trkpt>
      <trkpt lat="44.91241" lon="4.39081">
        <ele>769</ele>
        <time>2020-06-22T21:51:03+02:00</time>
      </trkpt>
      <trkpt lat="44.91224" lon="4.39172">
        <ele>753</ele>
        <time>2020-06-22T21:51:08+02:00</time>
      </trkpt>
      <trkpt lat="44.91166" lon="4.39202">
        <ele>749</ele>
        <time>2020-06-22T21:51:13+02:00</time>
      </trkpt>
      <trkpt lat="44.91147" lon="4.39261">
        <ele>736</ele>
        <time>2020-06-22T21:51:18+02:00</time>
      </trkpt>
      <trkpt lat="44.91122" lon="4.3929">
        <ele>734</ele>
        <time>2020-06-22T21:51:23+02:00</time>
      </trkpt>
      <trkpt lat="44.91128" lon="4.39348">
        <ele>717</ele>
        <time>2020-06-22T21:51:28+02:00</time>
      </trkpt>
      <trkpt lat="44.91128" lon="4.39425">
        <ele>698</ele>
        <time>2020-06-22T21:51:33+02:00</time>
      </trkpt>
      <trkpt lat="44.91065" lon="4.3957">
        <ele>674</ele>
        <time>2020-06-22T21:51:38+02:00</time>
      </trkpt>
      <trkpt lat="44.9109" lon="4.39581">
        <ele>666</ele>
        <time>2020-06-22T21:51:43+02:00</time>
      </trkpt>
      <trkpt lat="44.9106" lon="4.39642">
        <ele>668</ele>
        <time>2020-06-22T21:51:48+02:00</time>
      </trkpt>
      <trkpt lat="44.91135" lon="4.39849">
        <ele>648</ele>
        <time>2020-06-22T21:51:53+02:00</time>
      </trkpt>
      <trkpt lat="44.91095" lon="4.39995">
        <ele>657</ele>
        <time>2020-06-22T21:51:58+02:00</time>
      </trkpt>
      <trkpt lat="44.91211" lon="4.40222">
        <ele>637</ele>
        <time>2020-06-22T21:52:03+02:00</time>
      </trkpt>
      <trkpt lat="44.91022" lon="4.40446">
        <ele>640</ele>
        <time>2020-06-22T21:52:08+02:00</time>
      </trkpt>
      <trkpt lat="44.9102" lon="4.40581">
        <ele>641</ele>
        <time>2020-06-22T21:52:13+02:00</time>
      </trkpt>
      <trkpt lat="44.90984" lon="4.40654">
        <ele>638</ele>
        <time>2020-06-22T21:52:18+02:00</time>
      </trkpt>
      <trkpt lat="44.90965" lon="4.4072">
        <ele>639</ele>
        <time>2020-06-22T21:52:23+02:00</time>
      </trkpt>
      <trkpt lat="44.90892" lon="4.40839">
        <ele>638</ele>
        <time>2020-06-22T21:52:28+02:00</time>
      </trkpt>
      <trkpt lat="44.90829" lon="4.40873">
        <ele>628</ele>
        <time>2020-06-22T21:52:33+02:00</time>
      </trkpt>
      <trkpt lat="44.90803" lon="4.40918">
        <ele>626</ele>
        <time>2020-06-22T21:52:38+02:00</time>
      </trkpt>
      <trkpt lat="44.90803" lon="4.40972">
        <ele>619</ele>
        <time>2020-06-22T21:52:43+02:00</time>
      </trkpt>
      <trkpt lat="44.90829" lon="4.41045">
        <ele>608</ele>
        <time>2020-06-22T21:52:48+02:00</time>
      </trkpt>
      <trkpt lat="44.90822" lon="4.4116">
        <ele>592</ele>
        <time>2020-06-22T21:52:53+02:00</time>
      </trkpt>
      <trkpt lat="44.90803" lon="4.4122">
        <ele>586</ele>
        <time>2020-06-22T21:52:58+02:00</time>
      </trkpt>
      <trkpt lat="44.9076" lon="4.41403">
        <ele>581</ele>
        <time>2020-06-22T21:53:03+02:00</time>
      </trkpt>
      <trkpt lat="44.90702" lon="4.41482">
        <ele>567</ele>
        <time>2020-06-22T21:53:08+02:00</time>
      </trkpt>
      <trkpt lat="44.90692" lon="4.41549">
        <ele>569</ele>
        <time>2020-06-22T21:53:13+02:00</time>
      </trkpt>
      <trkpt lat="44.90648" lon="4.41583">
        <ele>558</ele>
        <time>2020-06-22T21:53:18+02:00</time>
      </trkpt>
      <trkpt lat="44.90616" lon="4.41609">
        <ele>551</ele>
        <time>2020-06-22T21:53:23+02:00</time>
      </trkpt>
      <trkpt lat="44.9059" lon="4.4165">
        <ele>546</ele>
        <time>2020-06-22T21:53:28+02:00</time>
      </trkpt>
      <trkpt lat="44.90591" lon="4.41695">
        <ele>546</ele>
        <time>2020-06-22T21:53:33+02:00</time>
      </trkpt>
      <trkpt lat="44.90573" lon="4.41766">
        <ele>531</ele>
        <time>2020-06-22T21:53:38+02:00</time>
      </trkpt>
      <trkpt lat="44.90591" lon="4.41843">
        <ele>518</ele>
        <time>2020-06-22T21:53:43+02:00</time>
      </trkpt>
      <trkpt lat="44.90591" lon="4.41892">
        <ele>504</ele>
        <time>2020-06-22T21:53:48+02:00</time>
      </trkpt>
      <trkpt lat="44.90643" lon="4.4188">
        <ele>515</ele>
        <time>2020-06-22T21:53:53+02:00</time>
      </trkpt>
      <trkpt lat="44.90623" lon="4.41907">
        <ele>502</ele>
        <time>2020-06-22T21:53:58+02:00</time>
      </trkpt>
      <trkpt lat="44.90614" lon="4.41944">
        <ele>490</ele>
        <time>2020-06-22T21:54:03+02:00</time>
      </trkpt>
      <trkpt lat="44.90593" lon="4.41987">
        <ele>476</ele>
        <time>2020-06-22T21:54:08+02:00</time>
      </trkpt>
      <trkpt lat="44.9064" lon="4.41961">
        <ele>484</ele>
        <time>2020-06-22T21:54:13+02:00</time>
      </trkpt>
      <trkpt lat="44.90578" lon="4.42073">
        <ele>458</ele>
        <time>2020-06-22T21:54:18+02:00</time>
      </trkpt>
      <trkpt lat="44.90625" lon="4.42049">
        <ele>462</ele>
        <time>2020-06-22T21:54:23+02:00</time>
      </trkpt>
      <trkpt lat="44.90617" lon="4.42092">
        <ele>455</ele>
        <time>2020-06-22T21:54:28+02:00</time>
      </trkpt>
      <trkpt lat="44.90581" lon="4.42111">
        <ele>453</ele>
        <time>2020-06-22T21:54:33+02:00</time>
      </trkpt>
      <trkpt lat="44.90655" lon="4.42159">
        <ele>448</ele>
        <time>2020-06-22T21:54:38+02:00</time>
      </trkpt>
    </trkseg>
  </trk>
</gpx>